Girard, Illinois
Current Conditions -  °F | °C
As of 11:15 PM on Wednesday 26 Nov 2014 (Local Time) from K3LF Reporting Station
Light Snow Light Snow  
Wind Chill: 18°   Ceiling: 600
Heat Index: 29°   Visibility: 2.5mi
Dew Point: 27°   Wind: 13mph
Humidity: 92%   Direction: 10°N
Pressure: 30.18"   Gusts: NA
Location:  39.45°N, 89.78°W
Report Text: K3LF 270515Z AUTO 01011KT 2 1/2SM -SN BKN006 OVC011 M02/M03 A3018 RMK AO2 T10191030
Loading
Personal Weather Stations






























Interactive Weather Map New forecast layout! Learn more

10-Day Weather Forecast

Advertisements
Track Severe Weather on mobile